sensor_id;sensor_type;location;lat;lon;timestamp;P1;durP1;ratioP1;P2;durP2;ratioP2
19191;SDS011;9728;48.194;16.346;2023-04-25T00:02:28;1.70;;;0.77;;
19191;SDS011;9728;48.194;16.346;2023-04-25T00:07:33;0.80;;;0.80;;
19191;SDS011;9728;48.194;16.346;2023-04-25T00:12:37;1.00;;;0.85;;
19191;SDS011;9728;48.194;16.346;2023-04-25T00:17:43;1.20;;;1.10;;
19191;SDS011;9728;48.194;16.346;2023-04-25T00:22:47;1.52;;;0.80;;
19191;SDS011;9728;48.194;16.346;2023-04-25T00:27:50;1.13;;;1.02;;
19191;SDS011;9728;48.194;16.346;2023-04-25T00:32:55;0.88;;;0.80;;
19191;SDS011;9728;48.194;16.346;2023-04-25T00:37:59;1.10;;;1.00;;
19191;SDS011;9728;48.194;16.346;2023-04-25T00:43:03;1.17;;;0.90;;
19191;SDS011;9728;48.194;16.346;2023-04-25T00:48:08;0.88;;;0.80;;
19191;SDS011;9728;48.194;16.346;2023-04-25T00:53:12;1.05;;;0.95;;
19191;SDS011;9728;48.194;16.346;2023-04-25T00:58:16;0.80;;;0.80;;
19191;SDS011;9728;48.194;16.346;2023-04-25T01:03:21;1.02;;;0.90;;
19191;SDS011;9728;48.194;16.346;2023-04-25T01:08:25;1.10;;;1.00;;
19191;SDS011;9728;48.194;16.346;2023-04-25T01:13:31;2.65;;;1.50;;
19191;SDS011;9728;48.194;16.346;2023-04-25T01:18:37;1.73;;;1.00;;
19191;SDS011;9728;48.194;16.346;2023-04-25T01:23:43;1.02;;;0.90;;
19191;SDS011;9728;48.194;16.346;2023-04-25T01:28:47;0.95;;;0.85;;
19191;SDS011;9728;48.194;16.346;2023-04-25T01:33:52;1.83;;;1.00;;
19191;SDS011;9728;48.194;16.346;2023-04-25T01:38:57;1.83;;;1.20;;
19191;SDS011;9728;48.194;16.346;2023-04-25T01:44:01;0.80;;;0.80;;
19191;SDS011;9728;48.194;16.346;2023-04-25T01:49:05;1.20;;;1.00;;
19191;SDS011;9728;48.194;16.346;2023-04-25T01:54:11;1.10;;;1.00;;
19191;SDS011;9728;48.194;16.346;2023-04-25T01:59:14;1.00;;;0.90;;
19191;SDS011;9728;48.194;16.346;2023-04-25T02:04:36;1.60;;;1.00;;
19191;SDS011;9728;48.194;16.346;2023-04-25T02:09:42;1.45;;;1.02;;
19191;SDS011;9728;48.194;16.346;2023-04-25T02:14:46;1.45;;;0.90;;
19191;SDS011;9728;48.194;16.346;2023-04-25T02:20:00;0.98;;;0.90;;
19191;SDS011;9728;48.194;16.346;2023-04-25T02:25:07;1.05;;;0.95;;
19191;SDS011;9728;48.194;16.346;2023-04-25T02:30:11;1.05;;;1.00;;
19191;SDS011;9728;48.194;16.346;2023-04-25T02:35:15;1.48;;;1.27;;
19191;SDS011;9728;48.194;16.346;2023-04-25T02:40:21;2.13;;;1.10;;
19191;SDS011;9728;48.194;16.346;2023-04-25T02:45:24;1.38;;;1.20;;
19191;SDS011;9728;48.194;16.346;2023-04-25T02:50:29;2.38;;;1.10;;
19191;SDS011;9728;48.194;16.346;2023-04-25T02:55:34;0.90;;;0.90;;
19191;SDS011;9728;48.194;16.346;2023-04-25T03:00:40;1.00;;;1.00;;
19191;SDS011;9728;48.194;16.346;2023-04-25T03:05:43;1.23;;;0.85;;
19191;SDS011;9728;48.194;16.346;2023-04-25T03:10:51;3.03;;;1.27;;
19191;SDS011;9728;48.194;16.346;2023-04-25T03:15:58;1.63;;;1.00;;
19191;SDS011;9728;48.194;16.346;2023-04-25T03:21:03;1.20;;;1.10;;
19191;SDS011;9728;48.194;16.346;2023-04-25T03:26:09;1.13;;;1.02;;
19191;SDS011;9728;48.194;16.346;2023-04-25T03:31:12;1.75;;;0.95;;
19191;SDS011;9728;48.194;16.346;2023-04-25T03:36:16;1.20;;;1.10;;
19191;SDS011;9728;48.194;16.346;2023-04-25T03:41:21;1.10;;;1.00;;
19191;SDS011;9728;48.194;16.346;2023-04-25T03:46:29;1.10;;;1.00;;
19191;SDS011;9728;48.194;16.346;2023-04-25T03:51:33;1.50;;;0.98;;
19191;SDS011;9728;48.194;16.346;2023-04-25T03:56:38;0.95;;;0.90;;
19191;SDS011;9728;48.194;16.346;2023-04-25T04:01:51;1.55;;;1.17;;
19191;SDS011;9728;48.194;16.346;2023-04-25T04:06:55;1.25;;;0.98;;
19191;SDS011;9728;48.194;16.346;2023-04-25T04:12:04;1.15;;;0.90;;
19191;SDS011;9728;48.194;16.346;2023-04-25T04:17:08;1.60;;;1.10;;
19191;SDS011;9728;48.194;16.346;2023-04-25T04:22:12;0.88;;;0.88;;
19191;SDS011;9728;48.194;16.346;2023-04-25T04:27:18;1.40;;;1.08;;
19191;SDS011;9728;48.194;16.346;2023-04-25T04:32:29;2.53;;;1.30;;
19191;SDS011;9728;48.194;16.346;2023-04-25T04:37:34;1.38;;;1.10;;
19191;SDS011;9728;48.194;16.346;2023-04-25T04:42:40;1.30;;;1.20;;
19191;SDS011;9728;48.194;16.346;2023-04-25T04:48:05;1.40;;;1.20;;
19191;SDS011;9728;48.194;16.346;2023-04-25T04:53:16;1.30;;;1.20;;
19191;SDS011;9728;48.194;16.346;2023-04-25T04:58:33;1.25;;;1.15;;
19191;SDS011;9728;48.194;16.346;2023-04-25T05:03:54;1.10;;;0.90;;
19191;SDS011;9728;48.194;16.346;2023-04-25T05:09:40;1.00;;;0.90;;
19191;SDS011;9728;48.194;16.346;2023-04-25T05:15:13;2.30;;;1.17;;
19191;SDS011;9728;48.194;16.346;2023-04-25T05:20:44;2.03;;;1.40;;
19191;SDS011;9728;48.194;16.346;2023-04-25T05:26:06;2.17;;;1.20;;
19191;SDS011;9728;48.194;16.346;2023-04-25T05:31:35;1.70;;;1.27;;
19191;SDS011;9728;48.194;16.346;2023-04-25T05:36:46;2.83;;;1.35;;
19191;SDS011;9728;48.194;16.346;2023-04-25T05:41:50;2.17;;;1.30;;
19191;SDS011;9728;48.194;16.346;2023-04-25T05:47:14;2.08;;;1.30;;
19191;SDS011;9728;48.194;16.346;2023-04-25T05:52:37;1.38;;;1.27;;
19191;SDS011;9728;48.194;16.346;2023-04-25T05:57:57;2.08;;;1.40;;
19191;SDS011;9728;48.194;16.346;2023-04-25T06:03:02;2.45;;;1.35;;
19191;SDS011;9728;48.194;16.346;2023-04-25T06:08:06;1.48;;;1.10;;
19191;SDS011;9728;48.194;16.346;2023-04-25T06:13:11;1.30;;;1.17;;
19191;SDS011;9728;48.194;16.346;2023-04-25T06:18:17;2.70;;;1.33;;
19191;SDS011;9728;48.194;16.346;2023-04-25T06:23:21;2.00;;;1.30;;
19191;SDS011;9728;48.194;16.346;2023-04-25T06:28:28;2.83;;;1.40;;
19191;SDS011;9728;48.194;16.346;2023-04-25T06:33:33;1.30;;;1.20;;
19191;SDS011;9728;48.194;16.346;2023-04-25T06:38:37;1.98;;;1.30;;
19191;SDS011;9728;48.194;16.346;2023-04-25T06:43:42;2.10;;;1.40;;
19191;SDS011;9728;48.194;16.346;2023-04-25T06:49:16;2.35;;;1.30;;
19191;SDS011;9728;48.194;16.346;2023-04-25T06:54:20;1.15;;;1.05;;
19191;SDS011;9728;48.194;16.346;2023-04-25T06:59:34;1.20;;;1.10;;
19191;SDS011;9728;48.194;16.346;2023-04-25T07:04:40;1.92;;;1.13;;
19191;SDS011;9728;48.194;16.346;2023-04-25T07:09:44;1.17;;;1.05;;
19191;SDS011;9728;48.194;16.346;2023-04-25T07:14:47;1.35;;;0.82;;
19191;SDS011;9728;48.194;16.346;2023-04-25T07:19:52;0.68;;;0.68;;
19191;SDS011;9728;48.194;16.346;2023-04-25T07:24:56;0.80;;;0.80;;
19191;SDS011;9728;48.194;16.346;2023-04-25T07:30:03;1.10;;;0.90;;
19191;SDS011;9728;48.194;16.346;2023-04-25T07:35:09;1.23;;;1.05;;
19191;SDS011;9728;48.194;16.346;2023-04-25T07:40:13;1.58;;;1.10;;
19191;SDS011;9728;48.194;16.346;2023-04-25T07:45:25;1.00;;;0.90;;
19191;SDS011;9728;48.194;16.346;2023-04-25T07:50:31;1.33;;;1.10;;
19191;SDS011;9728;48.194;16.346;2023-04-25T07:55:35;1.13;;;1.00;;
19191;SDS011;9728;48.194;16.346;2023-04-25T08:00:50;0.93;;;0.90;;
19191;SDS011;9728;48.194;16.346;2023-04-25T08:06:15;0.93;;;0.90;;
19191;SDS011;9728;48.194;16.346;2023-04-25T08:11:31;1.17;;;1.00;;
19191;SDS011;9728;48.194;16.346;2023-04-25T08:16:36;1.75;;;0.90;;
19191;SDS011;9728;48.194;16.346;2023-04-25T08:21:41;1.02;;;0.93;;
19191;SDS011;9728;48.194;16.346;2023-04-25T08:26:52;1.40;;;0.95;;
19191;SDS011;9728;48.194;16.346;2023-04-25T08:32:01;3.20;;;1.45;;
19191;SDS011;9728;48.194;16.346;2023-04-25T08:37:08;2.13;;;1.00;;
19191;SDS011;9728;48.194;16.346;2023-04-25T08:42:23;0.93;;;0.90;;
19191;SDS011;9728;48.194;16.346;2023-04-25T08:47:27;2.00;;;1.10;;
19191;SDS011;9728;48.194;16.346;2023-04-25T08:52:37;1.98;;;1.17;;
19191;SDS011;9728;48.194;16.346;2023-04-25T08:57:41;1.48;;;1.10;;
19191;SDS011;9728;48.194;16.346;2023-04-25T09:02:46;1.65;;;0.90;;
19191;SDS011;9728;48.194;16.346;2023-04-25T09:07:51;1.52;;;1.20;;
19191;SDS011;9728;48.194;16.346;2023-04-25T09:13:02;1.17;;;1.00;;
19191;SDS011;9728;48.194;16.346;2023-04-25T09:18:24;1.52;;;1.15;;
19191;SDS011;9728;48.194;16.346;2023-04-25T09:23:40;1.13;;;1.02;;
19191;SDS011;9728;48.194;16.346;2023-04-25T09:28:44;1.13;;;1.08;;
19191;SDS011;9728;48.194;16.346;2023-04-25T09:33:58;2.15;;;0.90;;
19191;SDS011;9728;48.194;16.346;2023-04-25T09:39:13;1.83;;;0.90;;
19191;SDS011;9728;48.194;16.346;2023-04-25T09:44:26;1.67;;;1.00;;
19191;SDS011;9728;48.194;16.346;2023-04-25T09:49:32;1.15;;;0.98;;
19191;SDS011;9728;48.194;16.346;2023-04-25T09:54:45;1.10;;;0.93;;
19191;SDS011;9728;48.194;16.346;2023-04-25T09:59:54;1.75;;;1.48;;
19191;SDS011;9728;48.194;16.346;2023-04-25T10:05:05;1.05;;;0.70;;
19191;SDS011;9728;48.194;16.346;2023-04-25T10:10:14;0.82;;;0.70;;
19191;SDS011;9728;48.194;16.346;2023-04-25T10:15:18;1.02;;;0.93;;
19191;SDS011;9728;48.194;16.346;2023-04-25T10:20:22;0.70;;;0.70;;
19191;SDS011;9728;48.194;16.346;2023-04-25T10:25:27;0.98;;;0.80;;
19191;SDS011;9728;48.194;16.346;2023-04-25T10:30:31;1.13;;;0.65;;
19191;SDS011;9728;48.194;16.346;2023-04-25T10:35:34;0.47;;;0.47;;
19191;SDS011;9728;48.194;16.346;2023-04-25T10:40:39;1.25;;;0.60;;
19191;SDS011;9728;48.194;16.346;2023-04-25T10:45:52;1.00;;;0.52;;
19191;SDS011;9728;48.194;16.346;2023-04-25T10:51:09;0.70;;;0.70;;
19191;SDS011;9728;48.194;16.346;2023-04-25T10:56:18;0.95;;;0.80;;
19191;SDS011;9728;48.194;16.346;2023-04-25T11:01:24;1.95;;;0.80;;
19191;SDS011;9728;48.194;16.346;2023-04-25T11:06:29;0.73;;;0.70;;
19191;SDS011;9728;48.194;16.346;2023-04-25T11:11:37;1.48;;;1.00;;
19191;SDS011;9728;48.194;16.346;2023-04-25T11:16:41;0.93;;;0.80;;
19191;SDS011;9728;48.194;16.346;2023-04-25T11:21:45;1.77;;;0.80;;
19191;SDS011;9728;48.194;16.346;2023-04-25T11:26:50;1.13;;;1.02;;
19191;SDS011;9728;48.194;16.346;2023-04-25T11:31:53;2.10;;;0.90;;
19191;SDS011;9728;48.194;16.346;2023-04-25T11:36:59;0.77;;;0.68;;
19191;SDS011;9728;48.194;16.346;2023-04-25T11:42:05;1.75;;;0.70;;
19191;SDS011;9728;48.194;16.346;2023-04-25T11:47:14;1.00;;;0.73;;
19191;SDS011;9728;48.194;16.346;2023-04-25T11:52:18;0.90;;;0.70;;
19191;SDS011;9728;48.194;16.346;2023-04-25T11:57:23;1.70;;;0.80;;
19191;SDS011;9728;48.194;16.346;2023-04-25T12:02:27;0.70;;;0.65;;
19191;SDS011;9728;48.194;16.346;2023-04-25T12:07:31;1.67;;;1.08;;
19191;SDS011;9728;48.194;16.346;2023-04-25T12:12:36;0.60;;;0.60;;
19191;SDS011;9728;48.194;16.346;2023-04-25T12:17:40;0.60;;;0.60;;
19191;SDS011;9728;48.194;16.346;2023-04-25T12:22:45;0.63;;;0.50;;
19191;SDS011;9728;48.194;16.346;2023-04-25T12:27:50;0.68;;;0.68;;
19191;SDS011;9728;48.194;16.346;2023-04-25T12:32:54;1.55;;;0.98;;
19191;SDS011;9728;48.194;16.346;2023-04-25T12:37:58;2.30;;;1.10;;
19191;SDS011;9728;48.194;16.346;2023-04-25T12:43:03;2.22;;;1.02;;
19191;SDS011;9728;48.194;16.346;2023-04-25T12:48:06;2.08;;;1.20;;
19191;SDS011;9728;48.194;16.346;2023-04-25T12:53:10;1.75;;;0.85;;
19191;SDS011;9728;48.194;16.346;2023-04-25T12:58:15;0.60;;;0.60;;
19191;SDS011;9728;48.194;16.346;2023-04-25T13:03:19;0.75;;;0.70;;
19191;SDS011;9728;48.194;16.346;2023-04-25T13:08:24;0.60;;;0.60;;
19191;SDS011;9728;48.194;16.346;2023-04-25T13:13:29;0.63;;;0.60;;
19191;SDS011;9728;48.194;16.346;2023-04-25T13:18:33;0.50;;;0.50;;
19191;SDS011;9728;48.194;16.346;2023-04-25T13:23:36;0.60;;;0.60;;
19191;SDS011;9728;48.194;16.346;2023-04-25T13:28:41;0.60;;;0.60;;
19191;SDS011;9728;48.194;16.346;2023-04-25T13:33:45;0.57;;;0.50;;
19191;SDS011;9728;48.194;16.346;2023-04-25T13:38:49;0.88;;;0.60;;
19191;SDS011;9728;48.194;16.346;2023-04-25T13:43:54;0.50;;;0.50;;
19191;SDS011;9728;48.194;16.346;2023-04-25T13:48:58;0.63;;;0.50;;
19191;SDS011;9728;48.194;16.346;2023-04-25T13:54:12;1.23;;;0.70;;
19191;SDS011;9728;48.194;16.346;2023-04-25T13:59:17;0.85;;;0.32;;
19191;SDS011;9728;48.194;16.346;2023-04-25T14:04:21;0.77;;;0.60;;
19191;SDS011;9728;48.194;16.346;2023-04-25T14:09:25;2.22;;;0.60;;
19191;SDS011;9728;48.194;16.346;2023-04-25T14:14:30;0.60;;;0.60;;
19191;SDS011;9728;48.194;16.346;2023-04-25T14:19:33;0.40;;;0.40;;
19191;SDS011;9728;48.194;16.346;2023-04-25T14:24:39;0.70;;;0.70;;
19191;SDS011;9728;48.194;16.346;2023-04-25T14:29:44;0.93;;;0.50;;
19191;SDS011;9728;48.194;16.346;2023-04-25T14:34:47;0.82;;;0.57;;
19191;SDS011;9728;48.194;16.346;2023-04-25T14:39:51;1.10;;;0.70;;
19191;SDS011;9728;48.194;16.346;2023-04-25T14:44:56;0.65;;;0.55;;
19191;SDS011;9728;48.194;16.346;2023-04-25T14:49:59;1.15;;;0.50;;
19191;SDS011;9728;48.194;16.346;2023-04-25T14:55:03;1.10;;;0.50;;
19191;SDS011;9728;48.194;16.346;2023-04-25T15:00:11;0.47;;;0.47;;
19191;SDS011;9728;48.194;16.346;2023-04-25T15:05:17;0.80;;;0.60;;
19191;SDS011;9728;48.194;16.346;2023-04-25T15:10:21;1.08;;;0.65;;
19191;SDS011;9728;48.194;16.346;2023-04-25T15:15:27;2.25;;;0.80;;
19191;SDS011;9728;48.194;16.346;2023-04-25T15:20:30;1.23;;;0.80;;
19191;SDS011;9728;48.194;16.346;2023-04-25T15:25:34;0.93;;;0.73;;
19191;SDS011;9728;48.194;16.346;2023-04-25T15:30:39;0.70;;;0.70;;
19191;SDS011;9728;48.194;16.346;2023-04-25T15:35:44;0.50;;;0.50;;
19191;SDS011;9728;48.194;16.346;2023-04-25T15:40:47;0.95;;;0.70;;
19191;SDS011;9728;48.194;16.346;2023-04-25T15:45:54;0.77;;;0.60;;
19191;SDS011;9728;48.194;16.346;2023-04-25T15:50:58;1.17;;;0.60;;
19191;SDS011;9728;48.194;16.346;2023-04-25T15:56:02;0.63;;;0.60;;
19191;SDS011;9728;48.194;16.346;2023-04-25T16:01:07;1.40;;;0.65;;
19191;SDS011;9728;48.194;16.346;2023-04-25T16:06:11;1.10;;;0.60;;
19191;SDS011;9728;48.194;16.346;2023-04-25T16:11:15;0.50;;;0.50;;
19191;SDS011;9728;48.194;16.346;2023-04-25T16:16:20;0.60;;;0.55;;
19191;SDS011;9728;48.194;16.346;2023-04-25T16:21:24;0.50;;;0.50;;
19191;SDS011;9728;48.194;16.346;2023-04-25T16:26:29;0.88;;;0.63;;
19191;SDS011;9728;48.194;16.346;2023-04-25T16:31:34;1.20;;;0.90;;
19191;SDS011;9728;48.194;16.346;2023-04-25T16:36:37;1.10;;;0.88;;
19191;SDS011;9728;48.194;16.346;2023-04-25T16:41:41;0.60;;;0.50;;
19191;SDS011;9728;48.194;16.346;2023-04-25T16:46:46;1.00;;;0.80;;
19191;SDS011;9728;48.194;16.346;2023-04-25T16:51:51;1.48;;;0.65;;
19191;SDS011;9728;48.194;16.346;2023-04-25T16:56:54;1.42;;;0.45;;
19191;SDS011;9728;48.194;16.346;2023-04-25T17:02:00;0.52;;;0.50;;
19191;SDS011;9728;48.194;16.346;2023-04-25T17:07:04;0.90;;;0.63;;
19191;SDS011;9728;48.194;16.346;2023-04-25T17:12:08;0.57;;;0.55;;
19191;SDS011;9728;48.194;16.346;2023-04-25T17:17:14;2.22;;;0.70;;
19191;SDS011;9728;48.194;16.346;2023-04-25T17:22:19;1.40;;;0.70;;
19191;SDS011;9728;48.194;16.346;2023-04-25T17:27:23;0.50;;;0.50;;
19191;SDS011;9728;48.194;16.346;2023-04-25T17:32:28;0.50;;;0.50;;
19191;SDS011;9728;48.194;16.346;2023-04-25T17:37:32;1.00;;;0.88;;
19191;SDS011;9728;48.194;16.346;2023-04-25T17:42:40;0.80;;;0.60;;
19191;SDS011;9728;48.194;16.346;2023-04-25T17:47:46;0.70;;;0.70;;
19191;SDS011;9728;48.194;16.346;2023-04-25T17:52:52;0.77;;;0.63;;
19191;SDS011;9728;48.194;16.346;2023-04-25T17:57:57;0.77;;;0.75;;
19191;SDS011;9728;48.194;16.346;2023-04-25T18:03:05;0.57;;;0.57;;
19191;SDS011;9728;48.194;16.346;2023-04-25T18:08:12;0.70;;;0.55;;
19191;SDS011;9728;48.194;16.346;2023-04-25T18:13:16;0.60;;;0.60;;
19191;SDS011;9728;48.194;16.346;2023-04-25T18:18:21;1.17;;;0.90;;
19191;SDS011;9728;48.194;16.346;2023-04-25T18:23:28;0.57;;;0.57;;
19191;SDS011;9728;48.194;16.346;2023-04-25T18:28:35;0.70;;;0.70;;
19191;SDS011;9728;48.194;16.346;2023-04-25T18:33:40;0.65;;;0.65;;
19191;SDS011;9728;48.194;16.346;2023-04-25T18:38:43;0.70;;;0.70;;
19191;SDS011;9728;48.194;16.346;2023-04-25T18:43:53;0.60;;;0.52;;
19191;SDS011;9728;48.194;16.346;2023-04-25T18:49:01;1.67;;;0.90;;
19191;SDS011;9728;48.194;16.346;2023-04-25T18:54:05;1.30;;;0.70;;
19191;SDS011;9728;48.194;16.346;2023-04-25T18:59:12;0.82;;;0.60;;
19191;SDS011;9728;48.194;16.346;2023-04-25T19:04:19;0.57;;;0.57;;
19191;SDS011;9728;48.194;16.346;2023-04-25T19:09:24;0.68;;;0.60;;
19191;SDS011;9728;48.194;16.346;2023-04-25T19:14:29;0.63;;;0.63;;
19191;SDS011;9728;48.194;16.346;2023-04-25T19:19:36;0.57;;;0.57;;
19191;SDS011;9728;48.194;16.346;2023-04-25T19:24:40;2.03;;;0.98;;
19191;SDS011;9728;48.194;16.346;2023-04-25T19:29:45;1.20;;;0.90;;
19191;SDS011;9728;48.194;16.346;2023-04-25T19:35:00;0.63;;;0.60;;
19191;SDS011;9728;48.194;16.346;2023-04-25T19:40:06;0.60;;;0.50;;
19191;SDS011;9728;48.194;16.346;2023-04-25T19:45:12;0.50;;;0.50;;
19191;SDS011;9728;48.194;16.346;2023-04-25T19:50:17;0.80;;;0.50;;
19191;SDS011;9728;48.194;16.346;2023-04-25T19:55:23;1.05;;;0.50;;
19191;SDS011;9728;48.194;16.346;2023-04-25T20:00:35;0.95;;;0.63;;
19191;SDS011;9728;48.194;16.346;2023-04-25T20:05:45;0.82;;;0.80;;
19191;SDS011;9728;48.194;16.346;2023-04-25T20:10:48;0.68;;;0.68;;
19191;SDS011;9728;48.194;16.346;2023-04-25T20:15:56;1.92;;;0.80;;
19191;SDS011;9728;48.194;16.346;2023-04-25T20:21:04;1.33;;;0.80;;
19191;SDS011;9728;48.194;16.346;2023-04-25T20:26:09;0.68;;;0.68;;
19191;SDS011;9728;48.194;16.346;2023-04-25T20:31:13;1.05;;;0.70;;
19191;SDS011;9728;48.194;16.346;2023-04-25T20:36:18;1.52;;;0.80;;
19191;SDS011;9728;48.194;16.346;2023-04-25T20:41:22;0.93;;;0.80;;
19191;SDS011;9728;48.194;16.346;2023-04-25T20:46:26;0.82;;;0.70;;
19191;SDS011;9728;48.194;16.346;2023-04-25T20:51:32;0.80;;;0.80;;
19191;SDS011;9728;48.194;16.346;2023-04-25T20:56:36;0.80;;;0.70;;
19191;SDS011;9728;48.194;16.346;2023-04-25T21:01:40;0.80;;;0.60;;
19191;SDS011;9728;48.194;16.346;2023-04-25T21:06:46;1.10;;;1.00;;
19191;SDS011;9728;48.194;16.346;2023-04-25T21:11:50;0.73;;;0.73;;
19191;SDS011;9728;48.194;16.346;2023-04-25T21:16:54;0.90;;;0.70;;
19191;SDS011;9728;48.194;16.346;2023-04-25T21:22:00;0.70;;;0.70;;
19191;SDS011;9728;48.194;16.346;2023-04-25T21:27:04;1.52;;;1.10;;
19191;SDS011;9728;48.194;16.346;2023-04-25T21:32:15;0.75;;;0.70;;
19191;SDS011;9728;48.194;16.346;2023-04-25T21:37:22;1.67;;;0.80;;
19191;SDS011;9728;48.194;16.346;2023-04-25T21:42:26;1.52;;;0.80;;
19191;SDS011;9728;48.194;16.346;2023-04-25T21:47:29;1.02;;;0.93;;
19191;SDS011;9728;48.194;16.346;2023-04-25T21:52:35;1.20;;;1.02;;
19191;SDS011;9728;48.194;16.346;2023-04-25T21:57:39;1.23;;;1.08;;
19191;SDS011;9728;48.194;16.346;2023-04-25T22:02:43;0.80;;;0.80;;
19191;SDS011;9728;48.194;16.346;2023-04-25T22:07:48;1.10;;;1.00;;
19191;SDS011;9728;48.194;16.346;2023-04-25T22:12:52;1.30;;;1.20;;
19191;SDS011;9728;48.194;16.346;2023-04-25T22:17:56;2.50;;;1.23;;
19191;SDS011;9728;48.194;16.346;2023-04-25T22:23:01;1.27;;;1.08;;
19191;SDS011;9728;48.194;16.346;2023-04-25T22:28:05;1.25;;;1.13;;
19191;SDS011;9728;48.194;16.346;2023-04-25T22:33:09;1.30;;;1.20;;
19191;SDS011;9728;48.194;16.346;2023-04-25T22:38:14;1.42;;;1.15;;
19191;SDS011;9728;48.194;16.346;2023-04-25T22:43:17;1.38;;;1.08;;
19191;SDS011;9728;48.194;16.346;2023-04-25T22:48:21;0.90;;;0.90;;
19191;SDS011;9728;48.194;16.346;2023-04-25T22:53:26;2.05;;;1.10;;
19191;SDS011;9728;48.194;16.346;2023-04-25T22:58:31;0.88;;;0.88;;
19191;SDS011;9728;48.194;16.346;2023-04-25T23:03:34;1.00;;;0.95;;
19191;SDS011;9728;48.194;16.346;2023-04-25T23:08:40;1.30;;;1.20;;
19191;SDS011;9728;48.194;16.346;2023-04-25T23:13:44;1.70;;;1.20;;
19191;SDS011;9728;48.194;16.346;2023-04-25T23:18:47;1.85;;;1.40;;
19191;SDS011;9728;48.194;16.346;2023-04-25T23:23:53;2.65;;;1.70;;
19191;SDS011;9728;48.194;16.346;2023-04-25T23:28:56;2.17;;;1.50;;
19191;SDS011;9728;48.194;16.346;2023-04-25T23:33:59;2.67;;;2.05;;
19191;SDS011;9728;48.194;16.346;2023-04-25T23:39:05;2.17;;;1.50;;
19191;SDS011;9728;48.194;16.346;2023-04-25T23:44:13;1.92;;;1.58;;
19191;SDS011;9728;48.194;16.346;2023-04-25T23:49:16;2.40;;;1.48;;
19191;SDS011;9728;48.194;16.346;2023-04-25T23:54:22;2.25;;;1.88;;
19191;SDS011;9728;48.194;16.346;2023-04-25T23:59:27;3.10;;;1.65;;
